createdAt,value
2023-01-03T00:00:39.014Z,101136.81
2023-01-03T00:03:06.681Z,101131.63
2023-01-03T00:05:35.404Z,101129.75
2023-01-03T00:08:04.488Z,101137.31
2023-01-03T00:10:32.329Z,101132.84
2023-01-03T00:13:00.182Z,101142.16
2023-01-03T00:15:28.162Z,101142.16
2023-01-03T00:17:56.508Z,101142.00
2023-01-03T00:20:24.236Z,101141.03
2023-01-03T00:22:51.963Z,101153.00
2023-01-03T00:25:21.162Z,101148.66
2023-01-03T00:27:48.976Z,101157.22
2023-01-03T00:30:16.939Z,101151.94
2023-01-03T00:32:44.662Z,101152.75
2023-01-03T00:35:12.366Z,101163.09
2023-01-03T00:37:40.148Z,101156.44
2023-01-03T00:40:08.611Z,101163.41
2023-01-03T00:42:58.330Z,101158.34
2023-01-03T00:45:26.881Z,101159.31
2023-01-03T00:47:55.734Z,101152.56
2023-01-03T00:50:23.340Z,101150.00
2023-01-03T00:52:50.894Z,101154.31
2023-01-03T00:55:18.492Z,101150.16
2023-01-03T00:57:47.363Z,101147.59
2023-01-03T01:00:15.569Z,101148.53
2023-01-03T01:02:43.402Z,101145.09
2023-01-03T01:05:11.159Z,101147.91
2023-01-03T01:07:38.697Z,101153.03
2023-01-03T01:10:07.175Z,101153.03
2023-01-03T01:12:34.916Z,101155.59
2023-01-03T01:15:05.323Z,101149.66
2023-01-03T01:17:34.067Z,101154.78
2023-01-03T01:20:01.635Z,101154.78
2023-01-03T01:22:29.242Z,101155.78
2023-01-03T01:24:56.883Z,101163.47
2023-01-03T01:27:24.494Z,101158.97
2023-01-03T01:29:52.020Z,101161.38
2023-01-03T01:32:21.541Z,101167.97
2023-01-03T01:34:49.200Z,101177.22
2023-01-03T01:37:16.769Z,101175.19
2023-01-03T01:39:44.450Z,101182.44
2023-01-03T01:42:31.901Z,101185.41
2023-01-03T01:45:00.699Z,101192.06
2023-01-03T01:47:37.364Z,101194.41
2023-01-03T01:50:13.625Z,101193.34
2023-01-03T01:52:46.259Z,101190.16
2023-01-03T01:55:16.981Z,101189.16
2023-01-03T01:57:45.705Z,101191.72
2023-01-03T02:00:14.633Z,101183.00
2023-01-03T02:02:50.428Z,101176.19
2023-01-03T02:05:20.198Z,101173.69
2023-01-03T02:07:50.479Z,101172.81
2023-01-03T02:10:19.828Z,101177.78
2023-01-03T02:13:10.083Z,101172.38
2023-01-03T02:16:04.560Z,101166.22
2023-01-03T02:18:47.239Z,101174.38
2023-01-03T02:21:37.043Z,101169.72
2023-01-03T02:24:31.153Z,101177.97
2023-01-03T02:27:06.050Z,101179.34
2023-01-03T02:30:05.585Z,101183.94
2023-01-03T02:32:43.217Z,101183.38
2023-01-03T02:35:19.876Z,101181.50
2023-01-03T02:37:56.239Z,101182.84
2023-01-03T02:40:30.139Z,101176.59
2023-01-03T02:43:05.772Z,101174.38
2023-01-03T02:45:49.970Z,101171.34
2023-01-03T02:48:31.168Z,101181.41
2023-01-03T02:51:01.719Z,101181.94
2023-01-03T02:53:34.285Z,101182.47
2023-01-03T02:56:07.208Z,101177.63
2023-01-03T02:58:38.005Z,101184.75
2023-01-03T03:01:08.302Z,101190.50
2023-01-03T03:03:39.895Z,101190.25
2023-01-03T03:06:15.158Z,101208.59
2023-01-03T03:08:45.379Z,101209.91
2023-01-03T03:11:27.752Z,101207.16
2023-01-03T03:14:00.962Z,101208.22
2023-01-03T03:16:50.217Z,101203.69
2023-01-03T03:19:46.311Z,101196.53
2023-01-03T03:22:41.413Z,101204.13
2023-01-03T03:25:13.356Z,101205.53
2023-01-03T03:28:01.766Z,101204.47
2023-01-03T03:30:33.237Z,101191.31
2023-01-03T03:33:06.128Z,101189.53
2023-01-03T03:35:42.435Z,101193.78
2023-01-03T03:38:15.040Z,101190.69
2023-01-03T03:41:15.981Z,101193.19
2023-01-03T03:44:06.834Z,101191.91
2023-01-03T03:46:42.236Z,101192.41
2023-01-03T03:49:31.671Z,101198.56
2023-01-03T03:52:03.092Z,101208.00
2023-01-03T03:54:35.249Z,101207.03
2023-01-03T03:57:11.592Z,101211.25
2023-01-03T03:59:42.494Z,101204.25
2023-01-03T04:02:12.301Z,101199.94
2023-01-03T04:04:45.446Z,101201.53
2023-01-03T04:07:14.481Z,101197.81
2023-01-03T04:09:42.146Z,101202.72
2023-01-03T04:12:09.685Z,101206.88
2023-01-03T04:14:37.239Z,101211.00
2023-01-03T04:17:04.781Z,101209.22
2023-01-03T04:19:32.308Z,101222.13
2023-01-03T04:21:59.850Z,101221.03
2023-01-03T04:24:28.732Z,101214.34
2023-01-03T04:26:56.324Z,101210.81
2023-01-03T04:29:23.938Z,101204.53
2023-01-03T04:31:51.513Z,101210.44
2023-01-03T04:34:19.133Z,101217.31
2023-01-03T04:36:46.725Z,101215.34
2023-01-03T04:39:14.496Z,101224.22
2023-01-03T04:41:43.397Z,101216.34
2023-01-03T04:44:11.086Z,101223.91
2023-01-03T04:46:40.603Z,101221.03
2023-01-03T04:49:10.575Z,101227.91
2023-01-03T04:51:38.448Z,101217.69
2023-01-03T04:54:07.332Z,101218.66
2023-01-03T04:56:37.220Z,101228.53
2023-01-03T04:59:06.851Z,101223.59
2023-01-03T05:01:34.815Z,101223.81
2023-01-03T05:04:02.904Z,101222.22
2023-01-03T05:06:30.775Z,101224.97
2023-01-03T05:08:58.371Z,101220.84
2023-01-03T05:11:25.989Z,101228.41
2023-01-03T05:13:53.492Z,101231.06
2023-01-03T05:16:22.490Z,101229.50
2023-01-03T05:18:53.226Z,101234.13
2023-01-03T05:21:40.261Z,101219.16
2023-01-03T05:24:28.669Z,101230.63
2023-01-03T05:26:58.144Z,101233.28
2023-01-03T05:29:26.826Z,101234.19
2023-01-03T05:31:56.123Z,101237.72
2023-01-03T05:34:23.754Z,101237.72
2023-01-03T05:36:51.306Z,101243.63
2023-01-03T05:39:18.854Z,101245.97
2023-01-03T05:42:02.581Z,101251.97
2023-01-03T05:44:32.456Z,101255.25
2023-01-03T05:47:02.504Z,101252.78
2023-01-03T05:49:30.174Z,101252.09
2023-01-03T05:51:57.809Z,101250.28
2023-01-03T05:54:25.820Z,101256.19
2023-01-03T05:56:53.367Z,101254.34
2023-01-03T05:59:22.604Z,101259.19
2023-01-03T06:01:50.513Z,101257.22
2023-01-03T06:04:20.506Z,101262.13
2023-01-03T06:06:48.301Z,101266.19
2023-01-03T06:09:15.959Z,101258.22
2023-01-03T06:11:43.771Z,101261.34
2023-01-03T06:14:11.585Z,101258.00
2023-01-03T06:16:57.037Z,101259.81
2023-01-03T06:19:26.392Z,101259.59
2023-01-03T06:21:53.943Z,101267.84
2023-01-03T06:24:21.495Z,101270.09
2023-01-03T06:26:49.062Z,101261.22
2023-01-03T06:29:16.855Z,101259.38
2023-01-03T06:31:44.443Z,101268.59
2023-01-03T06:34:12.060Z,101269.28
2023-01-03T06:36:40.999Z,101269.97
2023-01-03T06:39:08.712Z,101274.81
2023-01-03T06:41:36.289Z,101269.56
2023-01-03T06:44:03.850Z,101272.03
2023-01-03T06:46:48.910Z,101270.94
2023-01-03T06:49:35.899Z,101266.53
2023-01-03T06:52:23.551Z,101269.59
2023-01-03T06:54:51.315Z,101263.47
2023-01-03T06:57:25.908Z,101273.50
2023-01-03T06:59:54.809Z,101275.09
2023-01-03T07:02:22.605Z,101275.00
2023-01-03T07:04:50.343Z,101276.53
2023-01-03T07:07:19.232Z,101278.03
2023-01-03T07:09:46.756Z,101269.28
2023-01-03T07:12:34.250Z,101273.91
2023-01-03T07:15:01.814Z,101281.38
2023-01-03T07:17:30.732Z,101279.53
2023-01-03T07:19:58.290Z,101287.69
2023-01-03T07:22:27.130Z,101290.00
2023-01-03T07:24:54.737Z,101287.84
2023-01-03T07:27:22.561Z,101286.09
2023-01-03T07:29:50.312Z,101292.75
2023-01-03T07:32:17.876Z,101297.28
2023-01-03T07:34:45.450Z,101300.19
2023-01-03T07:37:12.973Z,101306.41
2023-01-03T07:39:41.869Z,101315.50
2023-01-03T07:42:27.133Z,101315.13
2023-01-03T07:44:55.602Z,101313.66
2023-01-03T07:47:23.368Z,101315.91
2023-01-03T07:49:50.881Z,101326.34
2023-01-03T07:52:18.451Z,101316.75
2023-01-03T07:54:47.365Z,101322.44
2023-01-03T07:57:15.957Z,101322.88
2023-01-03T07:59:43.474Z,101322.66
2023-01-03T08:02:11.120Z,101327.16
2023-01-03T08:04:38.827Z,101326.34
2023-01-03T08:07:06.441Z,101328.91
2023-01-03T08:09:51.566Z,101330.50
2023-01-03T08:12:38.256Z,101332.25
2023-01-03T08:15:06.938Z,101333.34
2023-01-03T08:17:34.539Z,101337.75
2023-01-03T08:20:02.091Z,101334.25
2023-01-03T08:22:30.091Z,101336.00
2023-01-03T08:24:57.696Z,101341.81
2023-01-03T08:27:26.626Z,101344.84
2023-01-03T08:29:54.216Z,101343.69
2023-01-03T08:32:22.325Z,101361.50
2023-01-03T08:34:50.869Z,101359.69
2023-01-03T08:37:18.924Z,101356.47
2023-01-03T08:39:51.820Z,101358.16
2023-01-03T08:42:23.252Z,101365.69
2023-01-03T08:44:57.934Z,101363.34
2023-01-03T08:47:25.617Z,101372.38
2023-01-03T08:49:53.220Z,101368.25
2023-01-03T08:52:20.747Z,101366.34
2023-01-03T08:54:48.298Z,101370.09
2023-01-03T08:57:15.877Z,101369.91
2023-01-03T08:59:43.402Z,101376.06
2023-01-03T09:02:12.534Z,101377.66
2023-01-03T09:04:40.242Z,101383.09
2023-01-03T09:07:07.860Z,101394.66
2023-01-03T09:09:35.534Z,101388.88
2023-01-03T09:12:03.055Z,101389.78
2023-01-03T09:14:31.045Z,101394.88
2023-01-03T09:16:58.628Z,101390.44
2023-01-03T09:19:27.612Z,101404.09
2023-01-03T09:21:55.187Z,101398.63
2023-01-03T09:24:22.780Z,101392.94
2023-01-03T09:26:54.512Z,101397.44
2023-01-03T09:29:22.765Z,101404.53
2023-01-03T09:31:51.491Z,101404.53
2023-01-03T09:34:19.551Z,101411.22
2023-01-03T09:36:48.937Z,101411.22
2023-01-03T09:39:16.472Z,101399.09
2023-01-03T09:41:45.066Z,101404.75
2023-01-03T09:44:12.881Z,101404.53
2023-01-03T09:46:40.577Z,101402.97
2023-01-03T09:49:08.290Z,101402.56
2023-01-03T09:51:56.933Z,101409.00
2023-01-03T09:54:48.378Z,101406.44
2023-01-03T09:57:36.873Z,101407.66
2023-01-03T10:00:29.421Z,101404.59
2023-01-03T10:03:31.463Z,101398.06
2023-01-03T10:06:13.679Z,101403.19
2023-01-03T10:08:56.108Z,101399.84
2023-01-03T10:11:36.909Z,101390.22
2023-01-03T10:14:18.072Z,101395.88
2023-01-03T10:16:56.848Z,101394.13
2023-01-03T10:19:46.701Z,101389.63
2023-01-03T10:22:18.937Z,101386.28
2023-01-03T10:24:48.784Z,101376.19
2023-01-03T10:27:21.541Z,101379.06
2023-01-03T10:29:53.050Z,101385.66
2023-01-03T10:32:37.829Z,101379.63
2023-01-03T10:35:29.000Z,101383.97
2023-01-03T10:37:57.840Z,101385.88
2023-01-03T10:40:34.490Z,101376.38
2023-01-03T10:43:10.861Z,101385.03
2023-01-03T10:45:52.649Z,101376.16
2023-01-03T10:48:20.250Z,101376.72
2023-01-03T10:50:48.087Z,101377.19
2023-01-03T10:53:20.841Z,101377.00
2023-01-03T10:55:51.587Z,101371.69
2023-01-03T10:58:28.066Z,101369.91
2023-01-03T11:01:12.308Z,101365.06
2023-01-03T11:03:51.036Z,101377.16
2023-01-03T11:06:19.187Z,101370.06
2023-01-03T11:08:48.872Z,101364.56
2023-01-03T11:11:29.711Z,101357.66
2023-01-03T11:14:19.838Z,101359.13
2023-01-03T11:16:55.217Z,101355.53
2023-01-03T11:19:27.891Z,101352.81
2023-01-03T11:22:01.887Z,101358.59
2023-01-03T11:24:57.705Z,101359.00
2023-01-03T11:27:41.123Z,101352.81
2023-01-03T11:30:25.168Z,101348.94
2023-01-03T11:33:10.017Z,101346.69
2023-01-03T11:36:09.535Z,101343.03
2023-01-03T11:38:52.908Z,101342.91
2023-01-03T11:41:36.761Z,101348.22
2023-01-03T11:44:33.607Z,101335.50
2023-01-03T11:47:16.913Z,101335.94
2023-01-03T11:50:00.086Z,101335.06
2023-01-03T11:52:31.138Z,101335.25
2023-01-03T11:55:37.727Z,101331.94
2023-01-03T11:58:23.610Z,101329.91
2023-01-03T12:00:58.863Z,101323.25
2023-01-03T12:03:44.499Z,101328.34
2023-01-03T12:06:20.551Z,101323.00
2023-01-03T12:09:07.276Z,101331.75
2023-01-03T12:11:55.135Z,101319.34
2023-01-03T12:14:25.161Z,101318.28
2023-01-03T12:16:57.591Z,101311.53
2023-01-03T12:19:37.925Z,101309.19
2023-01-03T12:22:14.112Z,101310.94
2023-01-03T12:24:49.508Z,101306.97
2023-01-03T12:27:23.967Z,101312.84
2023-01-03T12:29:57.327Z,101309.63
2023-01-03T12:32:30.026Z,101314.53
2023-01-03T12:35:17.825Z,101311.88
2023-01-03T12:37:48.006Z,101307.44
2023-01-03T12:40:22.487Z,101306.44
2023-01-03T12:42:58.830Z,101295.16
2023-01-03T12:45:41.720Z,101298.03
2023-01-03T12:48:22.420Z,101299.09
2023-01-03T12:50:54.485Z,101297.34
2023-01-03T12:53:28.739Z,101300.81
2023-01-03T12:56:22.882Z,101293.09
2023-01-03T12:59:04.043Z,101290.47
2023-01-03T13:01:40.749Z,101285.38
2023-01-03T13:04:22.640Z,101288.38
2023-01-03T13:06:56.753Z,101284.63
2023-01-03T13:09:32.139Z,101281.31
2023-01-03T13:12:04.542Z,101281.44
2023-01-03T13:14:53.259Z,101278.69
2023-01-03T13:17:22.674Z,101283.78
2023-01-03T13:19:56.153Z,101281.00
2023-01-03T13:22:34.292Z,101279.66
2023-01-03T13:25:46.731Z,101280.84
2023-01-03T13:28:31.663Z,101274.16
2023-01-03T13:31:48.028Z,101268.41
2023-01-03T13:34:34.016Z,101267.84
2023-01-03T13:37:18.820Z,101267.03
2023-01-03T13:40:10.955Z,101272.88
2023-01-03T13:42:40.183Z,101257.22
2023-01-03T13:45:56.673Z,101266.69
2023-01-03T13:48:27.210Z,101263.75
2023-01-03T13:51:29.330Z,101266.31
2023-01-03T13:54:00.345Z,101271.31
2023-01-03T13:56:32.244Z,101271.47
2023-01-03T13:59:12.157Z,101271.88
2023-01-03T14:01:51.964Z,101268.06
2023-01-03T14:04:36.145Z,101265.97
2023-01-03T14:07:27.844Z,101261.81
2023-01-03T14:10:25.319Z,101268.31
2023-01-03T14:13:27.064Z,101269.94
2023-01-03T14:16:12.108Z,101262.22
2023-01-03T14:18:40.825Z,101272.19
2023-01-03T14:21:15.625Z,101274.19
2023-01-03T14:23:59.524Z,101274.47
2023-01-03T14:26:28.679Z,101273.06
2023-01-03T14:28:57.562Z,101272.13
2023-01-03T14:31:28.175Z,101272.28
2023-01-03T14:33:58.625Z,101260.22
2023-01-03T14:36:26.698Z,101266.88
2023-01-03T14:38:56.181Z,101267.53
2023-01-03T14:41:30.370Z,101266.97
2023-01-03T14:44:04.605Z,101274.78
2023-01-03T14:46:32.980Z,101278.53
2023-01-03T14:49:04.145Z,101276.16
2023-01-03T14:51:34.276Z,101269.91
2023-01-03T14:54:02.939Z,101269.53
2023-01-03T14:56:31.411Z,101273.88
2023-01-03T14:58:59.865Z,101275.78
2023-01-03T15:01:30.063Z,101275.09
2023-01-03T15:03:58.378Z,101278.63
2023-01-03T15:06:28.420Z,101281.94
2023-01-03T15:08:57.627Z,101284.41
2023-01-03T15:11:31.033Z,101277.53
2023-01-03T15:14:00.025Z,101278.13
2023-01-03T15:16:33.484Z,101278.47
2023-01-03T15:19:07.533Z,101272.25
2023-01-03T15:21:35.205Z,101273.28
2023-01-03T15:24:02.980Z,101277.94
2023-01-03T15:26:39.999Z,101289.63
2023-01-03T15:29:13.471Z,101285.72
2023-01-03T15:31:49.129Z,101287.09
2023-01-03T15:34:19.020Z,101288.22
2023-01-03T15:36:52.748Z,101295.22
2023-01-03T15:39:22.629Z,101292.72
2023-01-03T15:42:42.836Z,101292.13
2023-01-03T15:45:01.250Z,101296.38
2023-01-03T15:47:32.208Z,101303.13
2023-01-03T15:50:04.408Z,101309.19
2023-01-03T15:52:31.947Z,101308.28
2023-01-03T15:54:59.519Z,101307.81
2023-01-03T15:57:31.380Z,101308.88
2023-01-03T16:00:02.076Z,101307.97
2023-01-03T16:02:33.692Z,101305.50
2023-01-03T16:05:01.421Z,101305.31
2023-01-03T16:07:28.979Z,101308.16
2023-01-03T16:09:56.807Z,101305.34
2023-01-03T16:12:33.339Z,101306.47
2023-01-03T16:15:01.692Z,101315.19
2023-01-03T16:17:30.367Z,101314.50
2023-01-03T16:20:00.561Z,101318.06
2023-01-03T16:22:35.398Z,101315.91
2023-01-03T16:25:03.811Z,101317.91
2023-01-03T16:27:31.387Z,101314.91
2023-01-03T16:29:59.190Z,101316.34
2023-01-03T16:32:29.368Z,101322.19
2023-01-03T16:35:00.642Z,101328.22
2023-01-03T16:37:28.824Z,101331.06
2023-01-03T16:39:56.446Z,101330.25
2023-01-03T16:42:27.735Z,101337.44
2023-01-03T16:44:55.914Z,101335.75
2023-01-03T16:47:26.049Z,101338.84
2023-01-03T16:49:57.519Z,101338.66
2023-01-03T16:52:33.224Z,101346.97
2023-01-03T16:55:05.155Z,101356.88
2023-01-03T16:57:33.239Z,101348.75
2023-01-03T17:00:00.766Z,101342.28
2023-01-03T17:02:28.544Z,101355.25
2023-01-03T17:04:56.283Z,101354.78
2023-01-03T17:07:26.271Z,101354.53
2023-01-03T17:09:53.917Z,101352.72
2023-01-03T17:12:24.680Z,101352.16
2023-01-03T17:14:52.809Z,101349.91
2023-01-03T17:17:22.980Z,101345.50
2023-01-03T17:20:06.908Z,101342.31
2023-01-03T17:22:36.145Z,101348.00
2023-01-03T17:25:03.889Z,101340.94
2023-01-03T17:27:33.417Z,101346.56
2023-01-03T17:30:03.422Z,101341.22
2023-01-03T17:32:31.435Z,101335.16
2023-01-03T17:34:59.168Z,101339.50
2023-01-03T17:37:26.938Z,101337.84
2023-01-03T17:39:58.077Z,101338.41
2023-01-03T17:42:28.677Z,101349.44
2023-01-03T17:45:14.044Z,101346.88
2023-01-03T17:48:00.779Z,101351.81
2023-01-03T17:50:29.800Z,101346.13
2023-01-03T17:52:58.528Z,101347.66
2023-01-03T17:55:29.462Z,101352.78
2023-01-03T17:58:00.463Z,101359.28
2023-01-03T18:00:30.535Z,101353.97
2023-01-03T18:03:00.222Z,101359.66
2023-01-03T18:05:29.783Z,101367.16
2023-01-03T18:07:59.307Z,101371.19
2023-01-03T18:10:33.831Z,101366.75
2023-01-03T18:13:01.604Z,101373.44
2023-01-03T18:15:29.307Z,101372.56
2023-01-03T18:17:56.924Z,101363.41
2023-01-03T18:20:26.481Z,101357.22
2023-01-03T18:22:54.250Z,101371.84
2023-01-03T18:25:24.645Z,101373.81
2023-01-03T18:27:57.350Z,101384.53
2023-01-03T18:30:25.117Z,101391.03
2023-01-03T18:32:52.807Z,101393.03
2023-01-03T18:35:28.294Z,101390.19
2023-01-03T18:38:00.585Z,101389.31
2023-01-03T18:40:28.275Z,101390.53
2023-01-03T18:43:12.675Z,101391.50
2023-01-03T18:45:41.723Z,101392.66
2023-01-03T18:48:14.415Z,101397.16
2023-01-03T18:50:42.468Z,101394.03
2023-01-03T18:53:16.261Z,101396.91
2023-01-03T18:55:44.111Z,101396.28
2023-01-03T18:58:21.688Z,101388.38
2023-01-03T19:00:49.284Z,101389.25
2023-01-03T19:03:23.439Z,101397.81
2023-01-03T19:05:51.545Z,101394.13
2023-01-03T19:08:20.533Z,101393.91
2023-01-03T19:10:48.452Z,101393.47
2023-01-03T19:13:31.150Z,101393.75
2023-01-03T19:15:58.918Z,101401.75
2023-01-03T19:18:26.552Z,101407.56
2023-01-03T19:20:54.217Z,101396.94
2023-01-03T19:23:24.725Z,101400.84
2023-01-03T19:25:52.506Z,101398.06
2023-01-03T19:28:23.757Z,101393.41
2023-01-03T19:30:52.999Z,101389.97
2023-01-03T19:33:21.644Z,101387.00
2023-01-03T19:35:50.133Z,101384.13
2023-01-03T19:38:17.787Z,101389.56
2023-01-03T19:40:46.154Z,101394.66
2023-01-03T19:43:21.889Z,101402.00
2023-01-03T19:45:50.100Z,101396.78
2023-01-03T19:48:20.666Z,101401.47
2023-01-03T19:50:49.585Z,101403.69
2023-01-03T19:53:17.203Z,101409.47
2023-01-03T19:55:47.467Z,101401.50
2023-01-03T19:58:18.614Z,101393.69
2023-01-03T20:00:47.955Z,101391.75
2023-01-03T20:03:24.065Z,101390.63
2023-01-03T20:05:51.880Z,101383.75
2023-01-03T20:08:19.584Z,101383.94
2023-01-03T20:10:47.326Z,101387.41
2023-01-03T20:13:18.929Z,101390.84
2023-01-03T20:15:48.223Z,101389.28
2023-01-03T20:18:36.382Z,101382.63
2023-01-03T20:21:07.866Z,101388.59
2023-01-03T20:23:38.848Z,101381.63
2023-01-03T20:26:07.312Z,101381.22
2023-01-03T20:28:34.850Z,101373.56
2023-01-03T20:31:03.738Z,101379.22
2023-01-03T20:33:31.480Z,101371.56
2023-01-03T20:36:11.620Z,101377.44
2023-01-03T20:38:45.491Z,101368.13
2023-01-03T20:41:15.454Z,101373.31
2023-01-03T20:43:43.549Z,101371.56
2023-01-03T20:46:17.480Z,101366.47
2023-01-03T20:48:45.727Z,101371.47
2023-01-03T20:51:14.672Z,101369.69
2023-01-03T20:53:43.442Z,101360.25
2023-01-03T20:56:13.191Z,101354.94
2023-01-03T20:58:41.269Z,101355.81
2023-01-03T21:01:09.265Z,101354.06
2023-01-03T21:03:38.956Z,101350.28
2023-01-03T21:06:18.605Z,101350.06
2023-01-03T21:08:54.269Z,101344.53
2023-01-03T21:11:25.510Z,101346.75
2023-01-03T21:13:53.836Z,101345.63
2023-01-03T21:16:29.744Z,101336.75
2023-01-03T21:19:01.661Z,101335.78
2023-01-03T21:21:31.875Z,101335.69
2023-01-03T21:23:59.833Z,101336.56
2023-01-03T21:26:27.428Z,101332.78
2023-01-03T21:28:55.205Z,101331.03
2023-01-03T21:31:23.999Z,101327.47
2023-01-03T21:33:51.978Z,101326.56
2023-01-03T21:36:24.329Z,101329.03
2023-01-03T21:38:53.520Z,101325.34
2023-01-03T21:41:22.900Z,101337.44
2023-01-03T21:43:50.717Z,101337.22
2023-01-03T21:46:20.808Z,101337.00
2023-01-03T21:48:48.573Z,101326.69
2023-01-03T21:51:24.722Z,101332.91
2023-01-03T21:54:02.355Z,101326.56
2023-01-03T21:56:29.946Z,101327.91
2023-01-03T21:58:57.534Z,101328.09
2023-01-03T22:01:25.703Z,101332.09
2023-01-03T22:04:10.843Z,101329.22
2023-01-03T22:06:39.349Z,101343.03
2023-01-03T22:09:28.239Z,101336.19
2023-01-03T22:11:55.815Z,101334.50
2023-01-03T22:14:23.371Z,101328.78
2023-01-03T22:16:51.114Z,101323.69
2023-01-03T22:19:18.682Z,101315.03
2023-01-03T22:21:46.215Z,101318.34
2023-01-03T22:24:15.168Z,101310.38
2023-01-03T22:26:42.761Z,101310.28
2023-01-03T22:29:10.396Z,101315.59
2023-01-03T22:31:38.107Z,101310.63
2023-01-03T22:34:05.719Z,101286.28
2023-01-03T22:36:33.255Z,101271.75
2023-01-03T22:39:00.831Z,101276.72
2023-01-03T22:41:30.153Z,101291.81
2023-01-03T22:43:57.823Z,101300.19
2023-01-03T22:46:25.645Z,101301.06
2023-01-03T22:48:53.669Z,101292.44
2023-01-03T22:51:21.762Z,101290.69
2023-01-03T22:53:49.321Z,101298.09
2023-01-03T22:56:18.401Z,101297.19
2023-01-03T22:58:47.409Z,101302.97
2023-01-03T23:01:18.039Z,101299.84
2023-01-03T23:03:47.196Z,101300.63
2023-01-03T23:06:17.603Z,101297.09
2023-01-03T23:08:47.405Z,101291.75
2023-01-03T23:11:34.932Z,101296.84
2023-01-03T23:14:07.355Z,101306.94
2023-01-03T23:16:35.547Z,101311.25
2023-01-03T23:19:04.872Z,101312.13
2023-01-03T23:21:33.162Z,101305.28
2023-01-03T23:24:00.819Z,101309.25
2023-01-03T23:26:28.454Z,101299.72
2023-01-03T23:28:56.559Z,101290.88
2023-01-03T23:31:27.166Z,101280.25
2023-01-03T23:33:55.145Z,101283.56
2023-01-03T23:36:22.788Z,101271.59
2023-01-03T23:38:50.442Z,101268.81
2023-01-03T23:41:19.659Z,101255.09
2023-01-03T23:43:47.495Z,101253.31
2023-01-03T23:46:19.947Z,101251.78
2023-01-03T23:48:49.762Z,101248.56
2023-01-03T23:51:17.471Z,101250.22
2023-01-03T23:53:45.087Z,101245.03
2023-01-03T23:56:14.741Z,101250.56
2023-01-03T23:58:42.595Z,101246.59
